createdAt,value
2022-11-20T00:03:18.933Z,92.74
2022-11-20T00:08:18.886Z,93.37
2022-11-20T00:13:18.807Z,94.51
2022-11-20T00:18:18.757Z,94.93
2022-11-20T00:23:18.700Z,94.72
2022-11-20T00:28:18.640Z,95.45
2022-11-20T00:33:18.573Z,95.03
2022-11-20T00:38:18.509Z,95.29
2022-11-20T00:43:18.404Z,96.33
2022-11-20T00:48:18.382Z,96.53
2022-11-20T00:53:18.300Z,97.33
2022-11-20T00:58:18.244Z,96.70
2022-11-20T01:03:21.544Z,96.70
2022-11-20T01:08:38.780Z,96.70
2022-11-20T01:13:31.199Z,94.93
2022-11-20T01:18:31.168Z,95.70
2022-11-20T01:23:31.060Z,96.22
2022-11-20T01:28:30.981Z,96.22
2022-11-20T01:33:30.934Z,97.22
2022-11-20T01:38:30.842Z,98.26
2022-11-20T01:43:30.789Z,98.36
2022-11-20T01:48:30.737Z,98.47
2022-11-20T01:53:30.687Z,96.70
2022-11-20T01:58:30.606Z,97.64
2022-11-20T02:03:30.558Z,97.01
2022-11-20T02:08:30.485Z,97.74
2022-11-20T02:13:30.427Z,97.85
2022-11-20T02:18:30.395Z,95.97
2022-11-20T02:23:30.294Z,96.70
2022-11-20T02:28:30.224Z,96.91
2022-11-20T02:33:30.150Z,96.33
2022-11-20T02:38:30.078Z,97.74
2022-11-20T02:43:30.038Z,97.01
2022-11-20T02:48:33.679Z,96.08
2022-11-20T02:53:29.904Z,96.70
2022-11-20T02:58:29.828Z,97.33
2022-11-20T03:03:29.745Z,96.70
2022-11-20T03:08:29.694Z,96.80
2022-11-20T03:13:29.648Z,96.59
2022-11-20T03:18:29.650Z,96.91
2022-11-20T03:23:29.513Z,96.70
2022-11-20T03:28:29.427Z,96.70
2022-11-20T03:33:29.386Z,96.91
2022-11-20T03:38:29.346Z,97.22
2022-11-20T03:43:29.236Z,97.43
2022-11-20T03:48:29.181Z,98.05
2022-11-20T03:53:29.124Z,97.53
2022-11-20T03:58:29.047Z,97.38
2022-11-20T04:03:28.989Z,97.70
2022-11-20T04:08:28.917Z,97.38
2022-11-20T04:13:28.887Z,97.64
2022-11-20T04:18:28.814Z,98.63
2022-11-20T04:23:29.073Z,98.74
2022-11-20T04:28:28.661Z,99.05
2022-11-20T04:33:32.685Z,99.05
2022-11-20T04:38:29.559Z,99.36
2022-11-20T04:43:28.449Z,99.05
2022-11-20T04:48:30.024Z,98.94
2022-11-20T04:53:28.374Z,99.57
2022-11-20T04:58:28.297Z,98.94
2022-11-20T05:03:28.191Z,98.84
2022-11-20T05:08:28.170Z,99.36
2022-11-20T05:13:28.084Z,99.26
2022-11-20T05:18:28.068Z,99.05
2022-11-20T05:23:27.944Z,99.15
2022-11-20T05:28:27.911Z,99.15
2022-11-20T05:33:27.831Z,99.15
2022-11-20T05:38:27.808Z,99.36
2022-11-20T05:43:27.733Z,99.36
2022-11-20T05:48:27.676Z,99.57
2022-11-20T05:53:27.910Z,99.26
2022-11-20T05:58:27.539Z,99.26
2022-11-20T06:03:27.441Z,99.99
2022-11-20T06:08:27.431Z,99.99
2022-11-20T06:13:27.320Z,99.99
2022-11-20T06:18:27.292Z,99.99
2022-11-20T06:23:27.193Z,99.99
2022-11-20T06:28:27.189Z,99.99
2022-11-20T06:33:27.062Z,99.99
2022-11-20T06:38:27.033Z,99.99
2022-11-20T06:43:26.912Z,99.99
2022-11-20T06:48:26.892Z,99.99
2022-11-20T06:53:26.823Z,99.99
2022-11-20T06:58:26.817Z,99.99
2022-11-20T07:03:37.594Z,99.99
2022-11-20T07:08:30.003Z,99.99
2022-11-20T07:13:30.111Z,99.99
2022-11-20T07:18:29.870Z,99.99
2022-11-20T07:23:29.820Z,99.99
2022-11-20T07:28:29.748Z,99.99
2022-11-20T07:33:29.699Z,99.99
2022-11-20T07:38:29.621Z,99.99
2022-11-20T07:43:29.571Z,99.99
2022-11-20T07:48:29.486Z,99.99
2022-11-20T07:53:29.452Z,99.99
2022-11-20T07:58:29.393Z,99.99
2022-11-20T08:03:29.311Z,99.99
2022-11-20T08:08:31.303Z,99.99
2022-11-20T08:13:29.184Z,99.99
2022-11-20T08:18:32.238Z,99.49
2022-11-20T08:23:29.055Z,98.82
2022-11-20T08:28:28.970Z,99.03
2022-11-20T08:33:28.931Z,98.10
2022-11-20T08:38:28.908Z,97.99
2022-11-20T08:43:28.813Z,98.76
2022-11-20T08:48:28.725Z,99.18
2022-11-20T08:53:28.675Z,99.38
2022-11-20T08:58:28.574Z,98.55
2022-11-20T09:03:32.769Z,98.66
2022-11-20T09:08:28.459Z,98.45
2022-11-20T09:13:28.386Z,98.93
2022-11-20T09:18:28.330Z,97.85
2022-11-20T09:23:28.297Z,98.05
2022-11-20T09:28:28.205Z,97.95
2022-11-20T09:33:28.157Z,97.17
2022-11-20T09:38:28.103Z,96.92
2022-11-20T09:43:32.284Z,96.41
2022-11-20T09:48:28.954Z,96.09
2022-11-20T09:53:27.885Z,96.09
2022-11-20T09:58:30.678Z,95.16
2022-11-20T10:03:27.793Z,94.60
2022-11-20T10:08:27.669Z,93.98
2022-11-20T10:13:27.649Z,94.18
2022-11-20T10:18:27.549Z,91.13
2022-11-20T10:23:27.492Z,86.47
2022-11-20T10:28:27.419Z,87.83
2022-11-20T10:33:38.768Z,90.14
2022-11-20T10:38:28.290Z,88.96
2022-11-20T10:43:27.246Z,89.65
2022-11-20T10:48:27.176Z,88.68
2022-11-20T10:53:29.808Z,85.38
2022-11-20T10:58:27.015Z,84.39
2022-11-20T11:03:26.976Z,81.01
2022-11-20T11:08:26.868Z,83.18
2022-11-20T11:13:26.850Z,83.56
2022-11-20T11:18:26.770Z,84.92
2022-11-20T11:23:26.713Z,86.05
2022-11-20T11:28:26.639Z,87.58
2022-11-20T11:33:26.593Z,87.73
2022-11-20T11:38:26.575Z,88.82
2022-11-20T11:43:26.443Z,89.86
2022-11-20T11:48:26.367Z,90.00
2022-11-20T11:53:26.319Z,90.41
2022-11-20T11:58:26.220Z,90.72
2022-11-20T12:03:26.176Z,89.89
2022-11-20T12:08:26.151Z,90.26
2022-11-20T12:13:26.066Z,89.03
2022-11-20T12:18:25.975Z,89.54
2022-11-20T12:23:25.924Z,90.62
2022-11-20T12:28:25.815Z,90.99
2022-11-20T12:33:25.794Z,90.22
2022-11-20T12:38:26.064Z,89.46
2022-11-20T12:43:25.641Z,89.15
2022-11-20T12:48:25.627Z,87.29
2022-11-20T12:53:25.521Z,88.49
2022-11-20T12:58:25.457Z,88.18
2022-11-20T13:03:25.408Z,87.52
2022-11-20T13:08:25.308Z,86.60
2022-11-20T13:13:25.280Z,87.77
2022-11-20T13:18:25.180Z,87.77
2022-11-20T13:23:25.120Z,87.66
2022-11-20T13:28:25.047Z,88.08
2022-11-20T13:33:24.992Z,89.05
2022-11-20T13:38:26.137Z,89.25
2022-11-20T13:43:24.863Z,89.77
2022-11-20T13:48:24.823Z,90.91
2022-11-20T13:53:24.766Z,91.46
2022-11-20T13:58:24.633Z,91.56
2022-11-20T14:03:44.144Z,92.33
2022-11-20T14:08:25.521Z,93.26
2022-11-20T14:13:24.472Z,93.47
2022-11-20T14:18:24.386Z,93.47
2022-11-20T14:23:29.320Z,93.47
2022-11-20T14:28:25.247Z,93.37
2022-11-20T14:33:24.206Z,93.78
2022-11-20T14:38:24.137Z,94.19
2022-11-20T14:43:24.425Z,94.50
2022-11-20T14:48:24.024Z,95.12
2022-11-20T14:53:23.996Z,95.43
2022-11-20T14:58:24.233Z,95.17
2022-11-20T15:03:26.631Z,95.48
2022-11-20T15:08:24.733Z,96.30
2022-11-20T15:13:23.679Z,96.92
2022-11-20T15:18:23.628Z,97.02
2022-11-20T15:23:23.557Z,97.33
2022-11-20T15:28:23.489Z,97.59
2022-11-20T15:33:23.427Z,98.31
2022-11-20T15:38:23.387Z,99.86
2022-11-20T15:43:23.268Z,99.99
2022-11-20T15:48:23.234Z,99.99
2022-11-20T15:53:23.148Z,99.99
2022-11-20T15:58:23.072Z,99.99
2022-11-20T16:03:23.047Z,99.99
2022-11-20T16:08:22.953Z,99.99
2022-11-20T16:13:22.947Z,99.99
2022-11-20T16:18:22.865Z,99.99
2022-11-20T16:23:22.751Z,99.99
2022-11-20T16:28:22.681Z,99.99
2022-11-20T16:33:22.630Z,99.99
2022-11-20T16:38:22.532Z,99.99
2022-11-20T16:43:22.505Z,99.99
2022-11-20T16:48:22.426Z,99.99
2022-11-20T16:53:22.371Z,99.99
2022-11-20T16:58:22.276Z,99.99
2022-11-20T17:03:22.245Z,99.99
2022-11-20T17:08:22.157Z,99.99
2022-11-20T17:13:22.131Z,99.99
2022-11-20T17:18:22.101Z,99.99
2022-11-20T17:23:21.965Z,99.99
2022-11-20T17:28:21.888Z,99.99
2022-11-20T17:33:21.857Z,99.99
2022-11-20T17:38:21.749Z,99.99
2022-11-20T17:43:21.693Z,99.99
2022-11-20T17:48:21.638Z,99.99
2022-11-20T17:53:21.577Z,99.99
2022-11-20T17:58:21.519Z,99.99
2022-11-20T18:03:21.458Z,99.99
2022-11-20T18:08:21.391Z,99.99
2022-11-20T18:13:21.302Z,99.99
2022-11-20T18:18:21.257Z,99.99
2022-11-20T18:23:21.216Z,99.99
2022-11-20T18:28:21.118Z,99.99
2022-11-20T18:33:25.428Z,99.99
2022-11-20T18:38:22.054Z,99.99
2022-11-20T18:43:20.983Z,99.99
2022-11-20T18:48:20.955Z,99.99
2022-11-20T18:53:20.773Z,99.99
2022-11-20T18:58:20.732Z,99.99
2022-11-20T19:03:20.676Z,99.99
2022-11-20T19:08:20.616Z,99.99
2022-11-20T19:13:20.585Z,99.99
2022-11-20T19:18:20.426Z,99.99
2022-11-20T19:23:20.390Z,99.99
2022-11-20T19:28:20.321Z,99.99
2022-11-20T19:33:20.298Z,99.99
2022-11-20T19:38:20.220Z,99.99
2022-11-20T19:43:20.154Z,99.99
2022-11-20T19:48:20.060Z,99.99
2022-11-20T19:53:20.045Z,99.99
2022-11-20T19:58:20.170Z,99.99
2022-11-20T20:03:19.879Z,99.99
2022-11-20T20:08:19.814Z,99.99
2022-11-20T20:13:19.753Z,99.99
2022-11-20T20:18:19.638Z,99.99
2022-11-20T20:23:19.611Z,99.99
2022-11-20T20:28:19.530Z,99.99
2022-11-20T20:33:19.483Z,99.99
2022-11-20T20:38:19.423Z,99.99
2022-11-20T20:43:19.376Z,99.99
2022-11-20T20:48:19.248Z,99.99
2022-11-20T20:53:19.223Z,99.99
2022-11-20T20:58:19.141Z,99.99
2022-11-20T21:03:19.061Z,99.51
2022-11-20T21:08:19.018Z,99.82
2022-11-20T21:13:18.972Z,99.99
2022-11-20T21:18:18.869Z,99.99
2022-11-20T21:23:18.835Z,99.76
2022-11-20T21:28:18.780Z,99.99
2022-11-20T21:33:18.723Z,99.99
2022-11-20T21:38:18.631Z,99.99
2022-11-20T21:43:18.587Z,99.99
2022-11-20T21:48:18.486Z,99.99
2022-11-20T21:53:18.433Z,99.99
2022-11-20T21:58:18.336Z,99.99
2022-11-20T22:03:18.368Z,99.99
2022-11-20T22:08:18.200Z,99.99
2022-11-20T22:13:18.166Z,99.99
2022-11-20T22:18:18.175Z,99.99
2022-11-20T22:23:18.029Z,99.99
2022-11-20T22:28:17.943Z,99.99
2022-11-20T22:33:17.883Z,99.99
2022-11-20T22:38:17.820Z,99.99
2022-11-20T22:43:17.760Z,99.99
2022-11-20T22:48:17.672Z,99.99
2022-11-20T22:53:17.618Z,99.99
2022-11-20T22:58:17.542Z,99.99
2022-11-20T23:03:17.577Z,99.99
2022-11-20T23:08:17.408Z,99.99
2022-11-20T23:13:17.368Z,99.99
2022-11-20T23:18:17.286Z,99.99
2022-11-20T23:23:17.224Z,99.99
2022-11-20T23:28:17.165Z,99.99
2022-11-20T23:33:17.106Z,99.99
2022-11-20T23:38:17.021Z,99.99
2022-11-20T23:43:17.102Z,99.99
2022-11-20T23:48:16.914Z,99.99
2022-11-20T23:53:16.842Z,99.99
2022-11-20T23:58:16.758Z,99.99
